createdAt,value
2016-12-13T00:00:08.572Z,93.04
2016-12-13T00:00:36.360Z,93.52
2016-12-13T00:01:04.051Z,93.33
2016-12-13T00:01:31.746Z,93.52
2016-12-13T00:01:59.656Z,93.52
2016-12-13T00:02:27.393Z,93.43
2016-12-13T00:02:55.124Z,93.43
2016-12-13T00:03:23.054Z,93.14
2016-12-13T00:03:50.880Z,93.81
2016-12-13T00:04:18.599Z,93.43
2016-12-13T00:04:46.383Z,93.14
2016-12-13T00:05:14.077Z,94.01
2016-12-13T00:05:41.775Z,93.24
2016-12-13T00:06:09.507Z,93.33
2016-12-13T00:06:37.338Z,93.52
2016-12-13T00:07:05.066Z,93.81
2016-12-13T00:07:32.801Z,93.62
2016-12-13T00:08:00.485Z,93.52
2016-12-13T00:08:28.249Z,93.33
2016-12-13T00:08:55.915Z,93.52
2016-12-13T00:09:23.619Z,93.52
2016-12-13T00:09:51.410Z,93.24
2016-12-13T00:10:19.192Z,93.72
2016-12-13T00:10:46.890Z,94.01
2016-12-13T00:11:14.688Z,93.81
2016-12-13T00:11:42.393Z,93.52
2016-12-13T00:12:10.094Z,93.91
2016-12-13T00:12:37.779Z,93.43
2016-12-13T00:13:05.571Z,93.43
2016-12-13T00:13:33.380Z,93.24
2016-12-13T00:14:01.072Z,93.14
2016-12-13T00:14:28.788Z,93.43
2016-12-13T00:14:56.541Z,93.43
2016-12-13T00:15:24.238Z,93.14
2016-12-13T00:15:51.931Z,94.1
2016-12-13T00:16:19.628Z,93.72
2016-12-13T00:16:47.409Z,93.33
2016-12-13T00:17:15.123Z,93.52
2016-12-13T00:17:42.813Z,93.52
2016-12-13T00:18:10.615Z,93.62
2016-12-13T00:18:38.417Z,93.33
2016-12-13T00:19:06.231Z,93.24
2016-12-13T00:19:33.900Z,93.33
2016-12-13T00:20:01.565Z,93.52
2016-12-13T00:20:29.238Z,93.52
2016-12-13T00:20:57.132Z,93.72
2016-12-13T00:21:24.819Z,93.72
2016-12-13T00:21:52.530Z,93.52
2016-12-13T00:22:20.218Z,93.43
2016-12-13T00:22:48.003Z,93.72
2016-12-13T00:23:15.829Z,93.24
2016-12-13T00:23:43.529Z,93.14
2016-12-13T00:24:11.312Z,93.33
2016-12-13T00:24:39.046Z,93.04
2016-12-13T00:25:06.741Z,92.47
2016-12-13T00:25:34.544Z,92.56
2016-12-13T00:26:02.371Z,92.66
2016-12-13T00:26:30.144Z,92.47
2016-12-13T00:26:57.831Z,92.56
2016-12-13T00:27:25.834Z,92.66
2016-12-13T00:27:53.549Z,92.37
2016-12-13T00:28:21.378Z,92.56
2016-12-13T00:28:49.243Z,93.14
2016-12-13T00:29:16.917Z,93.33
2016-12-13T00:29:44.722Z,92.47
2016-12-13T00:30:12.409Z,92.56
2016-12-13T00:30:40.111Z,92.76
2016-12-13T00:31:07.826Z,92.47
2016-12-13T00:31:35.519Z,93.43
2016-12-13T00:32:03.217Z,93.04
2016-12-13T00:32:30.918Z,93.04
2016-12-13T00:32:58.604Z,92.94
2016-12-13T00:33:26.359Z,93.33
2016-12-13T00:33:54.034Z,92.94
2016-12-13T00:34:21.720Z,92.94
2016-12-13T00:34:49.423Z,93.33
2016-12-13T00:35:17.119Z,93.52
2016-12-13T00:35:44.935Z,93.33
2016-12-13T00:36:12.800Z,93.24
2016-12-13T00:36:40.617Z,93.33
2016-12-13T00:37:08.370Z,93.24
2016-12-13T00:37:36.164Z,92.76
2016-12-13T00:38:03.958Z,93.14
2016-12-13T00:38:31.812Z,93.52
2016-12-13T00:38:59.488Z,93.33
2016-12-13T00:39:27.186Z,93.14
2016-12-13T00:39:54.993Z,93.14
2016-12-13T00:40:22.682Z,93.33
2016-12-13T00:40:50.416Z,93.62
2016-12-13T00:41:18.251Z,93.43
2016-12-13T00:41:45.962Z,93.52
2016-12-13T00:42:13.768Z,93.62
2016-12-13T00:42:41.462Z,93.52
2016-12-13T00:43:09.262Z,93.33
2016-12-13T00:43:36.994Z,93.62
2016-12-13T00:44:04.860Z,93.52
2016-12-13T00:44:32.553Z,94.1
2016-12-13T00:45:00.244Z,94.2
2016-12-13T00:45:27.993Z,94.01
2016-12-13T00:45:55.676Z,94.01
2016-12-13T00:46:23.367Z,93.72
2016-12-13T00:46:51.075Z,93.24
2016-12-13T00:47:18.798Z,93.52
2016-12-13T00:47:46.571Z,93.33
2016-12-13T00:48:14.280Z,93.52
2016-12-13T00:48:41.989Z,93.24
2016-12-13T00:49:09.711Z,93.52
2016-12-13T00:49:37.517Z,93.33
2016-12-13T00:50:05.209Z,92.76
2016-12-13T00:50:32.905Z,93.14
2016-12-13T00:51:00.601Z,93.62
2016-12-13T00:51:28.282Z,93.52
2016-12-13T00:51:55.985Z,93.72
2016-12-13T00:52:23.684Z,93.43
2016-12-13T00:52:51.392Z,93.72
2016-12-13T00:53:19.165Z,93.33
2016-12-13T00:53:47.084Z,93.81
2016-12-13T00:54:14.808Z,92.94
2016-12-13T00:54:42.617Z,93.52
2016-12-13T00:55:10.339Z,93.43
2016-12-13T00:55:38.021Z,93.62
2016-12-13T00:56:05.712Z,93.33
2016-12-13T00:56:33.401Z,93.24
2016-12-13T00:57:01.167Z,93.14
2016-12-13T00:57:28.965Z,93.33
2016-12-13T00:57:56.967Z,93.72
2016-12-13T00:58:24.672Z,93.43
2016-12-13T00:58:52.399Z,93.24
2016-12-13T00:59:20.124Z,93.62
2016-12-13T00:59:47.829Z,94.1
2016-12-13T01:00:15.515Z,93.24
2016-12-13T01:00:43.408Z,93.52
2016-12-13T01:01:11.108Z,94.01
2016-12-13T01:01:38.787Z,94.01
2016-12-13T01:02:06.566Z,93.91
2016-12-13T01:02:34.245Z,93.24
2016-12-13T01:03:01.968Z,93.43
2016-12-13T01:03:29.775Z,93.72
2016-12-13T01:03:57.668Z,93.72
2016-12-13T01:04:25.376Z,93.91
2016-12-13T01:04:53.057Z,93.81
2016-12-13T01:05:20.904Z,94.39
2016-12-13T01:05:48.690Z,94.2
2016-12-13T01:06:16.400Z,94.2
2016-12-13T01:06:44.181Z,94.39
2016-12-13T01:07:11.859Z,93.91
2016-12-13T01:07:39.596Z,94.29
2016-12-13T01:08:07.293Z,94.2
2016-12-13T01:08:35.004Z,94.49
2016-12-13T01:09:02.715Z,93.91
2016-12-13T01:09:30.500Z,94.39
2016-12-13T01:09:58.165Z,94.49
2016-12-13T01:10:25.976Z,94.49
2016-12-13T01:10:53.742Z,94.39
2016-12-13T01:11:21.475Z,94.44
2016-12-13T01:11:49.150Z,94.82
2016-12-13T01:12:16.859Z,94.92
2016-12-13T01:12:44.555Z,95.02
2016-12-13T01:13:12.371Z,94.44
2016-12-13T01:13:40.438Z,95.21
2016-12-13T01:14:08.325Z,94.82
2016-12-13T01:14:36.005Z,95.02
2016-12-13T01:15:03.697Z,94.92
2016-12-13T01:15:31.396Z,94.82
2016-12-13T01:15:59.063Z,94.82
2016-12-13T01:16:26.821Z,95.26
2016-12-13T01:16:54.632Z,94.73
2016-12-13T01:17:22.324Z,95.07
2016-12-13T01:17:50.216Z,95.12
2016-12-13T01:18:18.030Z,95.02
2016-12-13T01:18:45.715Z,94.97
2016-12-13T01:19:13.652Z,94.97
2016-12-13T01:19:41.363Z,95.21
2016-12-13T01:20:09.032Z,95.36
2016-12-13T01:20:36.741Z,95.16
2016-12-13T01:21:04.449Z,95.26
2016-12-13T01:21:32.139Z,95.16
2016-12-13T01:21:59.928Z,95.36
2016-12-13T01:22:27.821Z,94.97
2016-12-13T01:22:55.521Z,95.16
2016-12-13T01:23:23.347Z,95.36
2016-12-13T01:23:51.052Z,95.07
2016-12-13T01:24:18.884Z,95.16
2016-12-13T01:24:46.611Z,95.16
2016-12-13T01:25:14.327Z,95.12
2016-12-13T01:25:42.090Z,95.16
2016-12-13T01:26:09.787Z,95.07
2016-12-13T01:26:37.485Z,94.87
2016-12-13T01:27:05.195Z,94.39
2016-12-13T01:27:32.913Z,94.59
2016-12-13T01:28:00.597Z,94.78
2016-12-13T01:28:28.504Z,94.78
2016-12-13T01:28:56.213Z,94.2
2016-12-13T01:29:23.923Z,94.2
2016-12-13T01:29:51.738Z,94.59
2016-12-13T01:30:19.568Z,94.59
2016-12-13T01:30:47.231Z,94.68
2016-12-13T01:31:14.927Z,94.68
2016-12-13T01:31:42.817Z,94.97
2016-12-13T01:32:10.516Z,94.97
2016-12-13T01:32:38.204Z,95.16
2016-12-13T01:33:05.883Z,94.78
2016-12-13T01:33:33.688Z,95.26
2016-12-13T01:34:01.400Z,95.16
2016-12-13T01:34:29.091Z,94.39
2016-12-13T01:34:56.958Z,94.49
2016-12-13T01:35:24.614Z,94.39
2016-12-13T01:35:52.405Z,94.2
2016-12-13T01:36:20.126Z,93.91
2016-12-13T01:36:47.828Z,93.91
2016-12-13T01:37:15.555Z,94.49
2016-12-13T01:37:43.199Z,93.91
2016-12-13T01:38:10.885Z,94.1
2016-12-13T01:38:38.671Z,94.49
2016-12-13T01:39:06.485Z,94.2
2016-12-13T01:39:34.177Z,94.59
2016-12-13T01:40:01.875Z,94.49
2016-12-13T01:40:29.566Z,94.29
2016-12-13T01:40:57.264Z,94.39
2016-12-13T01:41:24.974Z,94.49
2016-12-13T01:41:52.657Z,94.78
2016-12-13T01:42:20.346Z,94.59
2016-12-13T01:42:48.031Z,94.59
2016-12-13T01:43:15.709Z,94.59
2016-12-13T01:43:43.431Z,94.49
2016-12-13T01:44:11.148Z,94.49
2016-12-13T01:44:38.949Z,94.78
2016-12-13T01:45:06.628Z,94.39
2016-12-13T01:45:34.349Z,94.87
2016-12-13T01:46:02.039Z,94.49
2016-12-13T01:46:29.732Z,94.78
2016-12-13T01:46:57.420Z,94.78
2016-12-13T01:47:25.121Z,94.39
2016-12-13T01:47:52.824Z,94.49
2016-12-13T01:48:20.504Z,94.2
2016-12-13T01:48:48.340Z,94.1
2016-12-13T01:49:16.020Z,94.1
2016-12-13T01:49:43.879Z,94.49
2016-12-13T01:50:11.638Z,94.78
2016-12-13T01:50:39.344Z,94.59
2016-12-13T01:51:07.045Z,94.39
2016-12-13T01:51:34.747Z,94.29
2016-12-13T01:52:02.439Z,94.68
2016-12-13T01:52:30.107Z,94.63
2016-12-13T01:52:57.919Z,94.78
2016-12-13T01:53:25.675Z,94.15
2016-12-13T01:53:53.360Z,94.39
2016-12-13T01:54:21.153Z,94.44
2016-12-13T01:54:48.954Z,94.44
2016-12-13T01:55:16.716Z,93.76
2016-12-13T01:55:44.422Z,94.44
2016-12-13T01:56:12.113Z,93.96
2016-12-13T01:56:39.979Z,94.34
2016-12-13T01:57:07.680Z,94.44
2016-12-13T01:57:35.414Z,94.54
2016-12-13T01:58:03.263Z,94.44
2016-12-13T01:58:31.152Z,94.15
2016-12-13T01:58:58.864Z,94.15
2016-12-13T01:59:26.561Z,94.34
2016-12-13T01:59:54.262Z,94.44
2016-12-13T02:00:21.994Z,94.44
2016-12-13T02:00:49.684Z,93.86
2016-12-13T02:01:17.366Z,94.15
2016-12-13T02:01:45.030Z,94.34
2016-12-13T02:02:12.810Z,94.54
2016-12-13T02:02:40.548Z,94.54
2016-12-13T02:03:08.240Z,93.96
2016-12-13T02:03:36.026Z,94.44
2016-12-13T02:04:03.808Z,94.15
2016-12-13T02:04:31.531Z,94.63
2016-12-13T02:04:59.219Z,93.96
2016-12-13T02:05:27.014Z,93.86
2016-12-13T02:05:54.754Z,94.15
2016-12-13T02:06:22.450Z,94.06
2016-12-13T02:06:50.107Z,94.15
2016-12-13T02:07:17.784Z,93.57
2016-12-13T02:07:45.678Z,93.96
2016-12-13T02:08:13.393Z,94.06
2016-12-13T02:08:41.089Z,93.57
2016-12-13T02:09:08.843Z,93.66
2016-12-13T02:09:36.501Z,93.57
2016-12-13T02:10:04.401Z,93.57
2016-12-13T02:10:32.076Z,93.38
2016-12-13T02:10:59.767Z,93.48
2016-12-13T02:11:27.488Z,93.19
2016-12-13T02:11:55.273Z,92.51
2016-12-13T02:12:22.969Z,92.56
2016-12-13T02:12:50.754Z,92.61
2016-12-13T02:13:18.530Z,92.51
2016-12-13T02:13:46.222Z,92.71
2016-12-13T02:14:13.917Z,92.71
2016-12-13T02:14:41.603Z,92.51
2016-12-13T02:15:09.294Z,92.9
2016-12-13T02:15:37.023Z,92.41
2016-12-13T02:16:04.727Z,92.71
2016-12-13T02:16:32.449Z,92.51
2016-12-13T02:17:00.125Z,92.61
2016-12-13T02:17:27.910Z,92.51
2016-12-13T02:17:55.600Z,92.61
2016-12-13T02:18:23.317Z,92.71
2016-12-13T02:18:51.038Z,91.83
2016-12-13T02:19:18.745Z,92.41
2016-12-13T02:19:46.466Z,92.13
2016-12-13T02:20:14.358Z,92.32
2016-12-13T02:20:42.053Z,92.17
2016-12-13T02:21:09.824Z,92.75
2016-12-13T02:21:37.494Z,92.32
2016-12-13T02:22:05.240Z,91.93
2016-12-13T02:22:33.157Z,92.27
2016-12-13T02:23:00.942Z,92.41
2016-12-13T02:23:28.680Z,92.51
2016-12-13T02:23:56.404Z,92.51
2016-12-13T02:24:24.107Z,92.61
2016-12-13T02:24:51.789Z,92.51
2016-12-13T02:25:19.511Z,92.71
2016-12-13T02:25:47.192Z,92.61
2016-12-13T02:26:14.894Z,92.32
2016-12-13T02:26:42.630Z,92.32
2016-12-13T02:27:10.341Z,92.8
2016-12-13T02:27:38.052Z,92.41
2016-12-13T02:28:05.803Z,92.41
2016-12-13T02:28:33.608Z,92.51
2016-12-13T02:29:01.314Z,92.71
2016-12-13T02:29:28.987Z,92.32
2016-12-13T02:29:56.817Z,92.71
2016-12-13T02:30:24.594Z,92.71
2016-12-13T02:30:52.358Z,93.19
2016-12-13T02:31:20.060Z,93.48
2016-12-13T02:31:47.742Z,92.99
2016-12-13T02:32:15.437Z,93.28
2016-12-13T02:32:43.201Z,92.99
2016-12-13T02:33:11.004Z,93.19
2016-12-13T02:33:38.981Z,93.19
2016-12-13T02:34:06.777Z,93.19
2016-12-13T02:34:34.502Z,92.51
2016-12-13T02:35:02.275Z,92.61
2016-12-13T02:35:29.984Z,92.9
2016-12-13T02:35:57.686Z,93.28
2016-12-13T02:36:25.381Z,93.19
2016-12-13T02:36:53.055Z,92.8
2016-12-13T02:37:20.769Z,93.19
2016-12-13T02:37:48.481Z,92.8
2016-12-13T02:38:16.175Z,93.57
2016-12-13T02:38:43.869Z,93.19
2016-12-13T02:39:11.590Z,93.66
2016-12-13T02:39:39.527Z,93.66
2016-12-13T02:40:07.230Z,92.99
2016-12-13T02:40:35.016Z,92.61
2016-12-13T02:41:02.692Z,92.41
2016-12-13T02:41:30.375Z,92.51
2016-12-13T02:41:58.062Z,92.61
2016-12-13T02:42:25.764Z,92.41
2016-12-13T02:42:53.464Z,92.71
2016-12-13T02:43:21.201Z,92.32
2016-12-13T02:43:48.975Z,92.41
2016-12-13T02:44:16.664Z,92.51
2016-12-13T02:44:44.366Z,92.61
2016-12-13T02:45:12.042Z,92.32
2016-12-13T02:45:39.768Z,92.22
2016-12-13T02:46:07.447Z,92.71
2016-12-13T02:46:35.228Z,92.41
2016-12-13T02:47:03.179Z,92.99
2016-12-13T02:47:30.966Z,93.09
2016-12-13T02:47:58.629Z,92.99
2016-12-13T02:48:26.354Z,92.61
2016-12-13T02:48:54.059Z,92.8
2016-12-13T02:49:21.736Z,92.8
2016-12-13T02:49:49.608Z,92.41
2016-12-13T02:50:17.311Z,92.65
2016-12-13T02:50:44.991Z,92.41
2016-12-13T02:51:12.720Z,92.61
2016-12-13T02:51:40.430Z,92.9
2016-12-13T02:52:08.158Z,92.41
2016-12-13T02:52:35.800Z,92.8
2016-12-13T02:53:03.559Z,92.71
2016-12-13T02:53:31.468Z,92.32
2016-12-13T02:53:59.168Z,92.61
2016-12-13T02:54:27.052Z,92.8
2016-12-13T02:54:54.811Z,92.71
2016-12-13T02:55:22.491Z,92.51
2016-12-13T02:55:50.223Z,93.19
2016-12-13T02:56:17.943Z,93.09
2016-12-13T02:56:45.617Z,93.19
2016-12-13T02:57:13.341Z,92.99
2016-12-13T02:57:41.072Z,93.57
2016-12-13T02:58:08.780Z,93.66
2016-12-13T02:58:36.540Z,93.04
2016-12-13T02:59:04.257Z,92.75
2016-12-13T02:59:31.953Z,92.65
2016-12-13T02:59:59.634Z,92.56
2016-12-13T03:00:27.337Z,92.61
2016-12-13T03:01:02.356Z,92.65
2016-12-13T03:01:30.717Z,92.94
2016-12-13T03:01:58.420Z,92.94
2016-12-13T03:02:26.101Z,92.46
2016-12-13T03:02:53.823Z,92.8
2016-12-13T03:03:21.528Z,92.65
2016-12-13T03:03:49.197Z,92.61
2016-12-13T03:04:16.989Z,92.61
2016-12-13T03:04:44.783Z,93.19
2016-12-13T03:05:12.594Z,93.19
2016-12-13T03:05:40.268Z,92.71
2016-12-13T03:06:07.955Z,93.19
2016-12-13T03:06:35.659Z,93.38
2016-12-13T03:07:03.350Z,92.9
2016-12-13T03:07:31.065Z,93.09
2016-12-13T03:07:58.845Z,92.71
2016-12-13T03:08:26.737Z,92.8
2016-12-13T03:08:54.441Z,92.56
2016-12-13T03:09:22.165Z,92.85
2016-12-13T03:09:49.880Z,92.75
2016-12-13T03:10:17.591Z,92.41
2016-12-13T03:10:45.272Z,92.51
2016-12-13T03:11:13.088Z,92.61
2016-12-13T03:11:40.784Z,92.99
2016-12-13T03:12:08.466Z,93.19
2016-12-13T03:12:36.269Z,93.62
2016-12-13T03:13:03.976Z,92.9
2016-12-13T03:13:31.707Z,93.23
2016-12-13T03:13:59.405Z,92.99
2016-12-13T03:14:27.124Z,92.9
2016-12-13T03:14:54.811Z,93.19
2016-12-13T03:15:22.509Z,93.28
2016-12-13T03:15:50.256Z,92.71
2016-12-13T03:16:17.967Z,92.8
2016-12-13T03:16:45.768Z,93.48
2016-12-13T03:17:13.432Z,93.19
2016-12-13T03:17:41.127Z,93.09
2016-12-13T03:18:08.827Z,93.38
2016-12-13T03:18:36.529Z,93.09
2016-12-13T03:19:04.219Z,92.51
2016-12-13T03:19:32.006Z,93.09
2016-12-13T03:19:59.711Z,93.19
2016-12-13T03:20:27.405Z,93.28
2016-12-13T03:20:55.252Z,93.19
2016-12-13T03:21:23.131Z,93.57
2016-12-13T03:21:50.886Z,93.48
2016-12-13T03:22:18.587Z,93.48
2016-12-13T03:22:46.316Z,93.19
2016-12-13T03:23:14.092Z,93.28
2016-12-13T03:23:41.780Z,93.57
2016-12-13T03:24:09.483Z,93.48
2016-12-13T03:24:37.169Z,93.28
2016-12-13T03:25:04.857Z,93.28
2016-12-13T03:25:32.557Z,93.48
2016-12-13T03:26:00.282Z,93.48
2016-12-13T03:26:28.033Z,93.28
2016-12-13T03:26:55.736Z,93.57
2016-12-13T03:27:23.547Z,93.38
2016-12-13T03:27:51.239Z,93.48
2016-12-13T03:28:18.924Z,93.76
2016-12-13T03:28:46.613Z,93.76
2016-12-13T03:29:14.318Z,93.86
2016-12-13T03:29:42.004Z,94.44
2016-12-13T03:30:09.709Z,94.44
2016-12-13T03:30:37.390Z,94.54
2016-12-13T03:31:05.093Z,94.24
2016-12-13T03:31:33.329Z,94.44
2016-12-13T03:32:01.506Z,94.54
2016-12-13T03:32:29.773Z,94.54
2016-12-13T03:32:57.947Z,94.44
2016-12-13T03:33:26.161Z,94.24
2016-12-13T03:33:54.316Z,94.44
2016-12-13T03:34:22.611Z,94.44
2016-12-13T03:34:50.766Z,94.44
2016-12-13T03:35:18.912Z,94.44
2016-12-13T03:35:47.073Z,94.34
2016-12-13T03:36:15.235Z,94.54
2016-12-13T03:36:43.482Z,94.44
2016-12-13T03:37:11.657Z,93.86
2016-12-13T03:37:39.951Z,94.44
2016-12-13T03:38:08.100Z,93.86
2016-12-13T03:38:36.367Z,94.44
2016-12-13T03:39:04.515Z,94.63
2016-12-13T03:39:32.781Z,94.34
2016-12-13T03:40:00.984Z,94.15
2016-12-13T03:40:29.160Z,94.24
2016-12-13T03:40:57.361Z,94.44
2016-12-13T03:41:25.483Z,94.54
2016-12-13T03:41:53.659Z,94.24
2016-12-13T03:42:21.820Z,93.96
2016-12-13T03:42:49.977Z,94.44
2016-12-13T03:43:18.135Z,94.44
2016-12-13T03:43:46.295Z,94.15
2016-12-13T03:44:14.532Z,94.54
2016-12-13T03:44:42.728Z,94.24
2016-12-13T03:45:10.867Z,94.54
2016-12-13T03:45:39.043Z,94.24
2016-12-13T03:46:07.222Z,94.54
2016-12-13T03:46:35.519Z,94.15
2016-12-13T03:47:03.789Z,94.44
2016-12-13T03:47:32.112Z,94.44
2016-12-13T03:48:00.268Z,94.34
2016-12-13T03:48:28.562Z,93.96
2016-12-13T03:48:56.727Z,94.24
2016-12-13T03:49:24.878Z,94.54
2016-12-13T03:49:53.047Z,94.54
2016-12-13T03:50:21.204Z,94.82
2016-12-13T03:50:49.464Z,95.02
2016-12-13T03:51:17.620Z,95.4
2016-12-13T03:51:45.805Z,94.63
2016-12-13T03:52:13.943Z,95.02
2016-12-13T03:52:42.122Z,94.92
2016-12-13T03:53:10.276Z,95.21
2016-12-13T03:53:38.433Z,95.31
2016-12-13T03:54:06.607Z,94.63
2016-12-13T03:54:34.771Z,94.44
2016-12-13T03:55:03.045Z,94.73
2016-12-13T03:55:31.246Z,94.54
2016-12-13T03:55:59.622Z,94.44
2016-12-13T03:56:28.420Z,94.15
2016-12-13T03:56:56.723Z,94.44
2016-12-13T03:57:24.915Z,93.66
2016-12-13T03:57:53.068Z,93.96
2016-12-13T03:58:21.476Z,93.86
2016-12-13T03:58:49.664Z,94.15
2016-12-13T03:59:17.853Z,93.86
2016-12-13T03:59:46.012Z,94.63
2016-12-13T04:00:14.212Z,94.44
2016-12-13T04:00:42.394Z,94.44
2016-12-13T04:01:10.557Z,94.44
2016-12-13T04:01:38.776Z,94.24
2016-12-13T04:02:07.068Z,94.24
2016-12-13T04:02:35.219Z,94.54
2016-12-13T04:03:03.399Z,94.54
2016-12-13T04:03:31.550Z,94.44
2016-12-13T04:03:59.747Z,94.24
2016-12-13T04:04:27.905Z,94.44
2016-12-13T04:04:56.065Z,94.82
2016-12-13T04:05:24.371Z,94.82
2016-12-13T04:05:52.537Z,95.31
2016-12-13T04:06:20.708Z,94.63
2016-12-13T04:06:48.878Z,94.54
2016-12-13T04:07:17.187Z,93.96
2016-12-13T04:07:45.351Z,94.63
2016-12-13T04:08:14.072Z,95.21
2016-12-13T04:08:45.518Z,95.31
2016-12-13T04:09:13.794Z,94.63
2016-12-13T04:09:42.171Z,95.21
2016-12-13T04:10:10.328Z,94.73
2016-12-13T04:10:38.482Z,94.63
2016-12-13T04:11:06.648Z,94.44
2016-12-13T04:11:34.814Z,95.21
2016-12-13T04:12:02.977Z,95.21
2016-12-13T04:12:31.158Z,95.11
2016-12-13T04:12:59.335Z,95.4
2016-12-13T04:13:27.507Z,95.21
2016-12-13T04:13:55.655Z,95.02
2016-12-13T04:14:23.822Z,94.63
2016-12-13T04:14:52.104Z,95.02
2016-12-13T04:15:20.375Z,94.92
2016-12-13T04:15:48.628Z,95.31
2016-12-13T04:16:16.779Z,95.02
2016-12-13T04:16:45.035Z,95.31
2016-12-13T04:17:13.328Z,95.11
2016-12-13T04:17:41.503Z,95.21
2016-12-13T04:18:09.653Z,95.21
2016-12-13T04:18:37.824Z,95.21
2016-12-13T04:19:06.001Z,95.02
2016-12-13T04:19:34.160Z,95.21
2016-12-13T04:20:02.300Z,94.73
2016-12-13T04:20:30.466Z,94.54
2016-12-13T04:20:58.727Z,94.44
2016-12-13T04:21:26.905Z,94.63
2016-12-13T04:21:55.058Z,94.44
2016-12-13T04:22:23.236Z,94.24
2016-12-13T04:22:51.418Z,94.44
2016-12-13T04:23:19.594Z,94.54
2016-12-13T04:23:47.785Z,94.73
2016-12-13T04:24:15.980Z,93.86
2016-12-13T04:24:44.129Z,94.15
2016-12-13T04:25:12.444Z,93.86
2016-12-13T04:25:40.611Z,94.63
2016-12-13T04:26:08.804Z,94.54
2016-12-13T04:26:37.077Z,94.54
2016-12-13T04:27:05.263Z,94.15
2016-12-13T04:27:33.426Z,93.96
2016-12-13T04:28:01.611Z,94.24
2016-12-13T04:28:31.406Z,93.57
2016-12-13T04:28:59.556Z,94.15
2016-12-13T04:29:27.745Z,94.06
2016-12-13T04:29:56.337Z,93.86
2016-12-13T04:30:26.058Z,93.76
2016-12-13T04:30:54.225Z,93.96
2016-12-13T04:31:22.401Z,93.76
2016-12-13T04:31:50.579Z,94.34
2016-12-13T04:32:18.739Z,93.76
2016-12-13T04:32:47.078Z,94.44
2016-12-13T04:33:15.245Z,94.24
2016-12-13T04:33:43.444Z,94.54
2016-12-13T04:34:11.614Z,94.54
2016-12-13T04:34:39.783Z,93.96
2016-12-13T04:35:07.927Z,94.34
2016-12-13T04:35:36.162Z,94.24
2016-12-13T04:36:04.484Z,94.24
2016-12-13T04:36:32.652Z,94.24
2016-12-13T04:37:01.020Z,94.63
2016-12-13T04:37:29.198Z,94.24
2016-12-13T04:37:57.361Z,94.63
2016-12-13T04:38:25.674Z,94.54
2016-12-13T04:38:53.979Z,94.34
2016-12-13T04:39:22.140Z,94.44
2016-12-13T04:39:50.313Z,94.54
2016-12-13T04:40:18.567Z,93.66
2016-12-13T04:40:46.750Z,93.86
2016-12-13T04:41:14.912Z,93.28
2016-12-13T04:41:43.061Z,93.48
2016-12-13T04:42:11.216Z,93.28
2016-12-13T04:42:39.363Z,93.96
2016-12-13T04:43:07.573Z,93.57
2016-12-13T04:43:35.726Z,94.24
2016-12-13T04:44:03.988Z,94.34
2016-12-13T04:44:32.267Z,93.86
2016-12-13T04:45:00.441Z,94.15
2016-12-13T04:45:28.616Z,94.44
2016-12-13T04:45:56.770Z,94.34
2016-12-13T04:46:25.031Z,94.34
2016-12-13T04:46:53.188Z,94.54
2016-12-13T04:47:21.366Z,94.44
2016-12-13T04:47:49.617Z,94.73
2016-12-13T04:48:17.773Z,94.44
2016-12-13T04:48:45.937Z,94.44
2016-12-13T04:49:14.122Z,95.31
2016-12-13T04:49:42.344Z,95.21
2016-12-13T04:50:10.497Z,95.11
2016-12-13T04:50:38.676Z,95.31
2016-12-13T04:51:06.916Z,94.92
2016-12-13T04:51:35.077Z,95.21
2016-12-13T04:52:03.328Z,94.63
2016-12-13T04:52:31.476Z,94.82
2016-12-13T04:52:59.631Z,94.24
2016-12-13T04:53:27.915Z,94.63
2016-12-13T04:53:56.273Z,94.44
2016-12-13T04:54:24.494Z,94.82
2016-12-13T04:54:52.765Z,94.73
2016-12-13T04:55:21.018Z,94.34
2016-12-13T04:55:49.236Z,94.63
2016-12-13T04:56:17.567Z,94.82
2016-12-13T04:56:45.729Z,94.73
2016-12-13T04:57:13.990Z,95.02
2016-12-13T04:57:42.152Z,95.21
2016-12-13T04:58:10.539Z,95.21
2016-12-13T04:58:38.764Z,95.21
2016-12-13T04:59:06.938Z,95.02
2016-12-13T04:59:35.200Z,95.21
2016-12-13T05:00:03.414Z,94.82
2016-12-13T05:00:31.702Z,94.63
2016-12-13T05:00:59.928Z,94.54
2016-12-13T05:01:28.193Z,94.15
2016-12-13T05:01:56.344Z,94.54
2016-12-13T05:02:24.529Z,94.44
2016-12-13T05:02:52.670Z,93.96
2016-12-13T05:03:20.881Z,94.73
2016-12-13T05:03:49.049Z,94.44
2016-12-13T05:04:17.189Z,94.92
2016-12-13T05:04:45.384Z,94.82
2016-12-13T05:05:13.537Z,94.44
2016-12-13T05:05:41.759Z,95.02
2016-12-13T05:06:09.903Z,95.21
2016-12-13T05:06:38.075Z,94.54
2016-12-13T05:07:06.235Z,94.63
2016-12-13T05:07:34.618Z,94.44
2016-12-13T05:08:02.861Z,94.54
2016-12-13T05:08:31.043Z,94.82
2016-12-13T05:08:59.222Z,94.54
2016-12-13T05:09:27.393Z,94.44
2016-12-13T05:09:55.576Z,94.63
2016-12-13T05:10:23.722Z,94.15
2016-12-13T05:10:51.952Z,94.54
2016-12-13T05:11:20.158Z,94.44
2016-12-13T05:11:48.410Z,94.44
2016-12-13T05:12:16.551Z,94.54
2016-12-13T05:12:44.730Z,94.73
2016-12-13T05:13:12.887Z,94.63
2016-12-13T05:13:41.164Z,94.44
2016-12-13T05:14:09.619Z,94.82
2016-12-13T05:14:37.789Z,94.44
2016-12-13T05:15:06.008Z,94.73
2016-12-13T05:15:34.192Z,94.82
2016-12-13T05:16:02.583Z,94.44
2016-12-13T05:16:30.771Z,94.44
2016-12-13T05:16:58.935Z,95.11
2016-12-13T05:17:27.311Z,94.63
2016-12-13T05:17:55.494Z,94.82
2016-12-13T05:18:23.680Z,94.34
2016-12-13T05:18:51.869Z,95.11
2016-12-13T05:19:20.063Z,94.34
2016-12-13T05:19:48.271Z,94.73
2016-12-13T05:20:16.409Z,94.34
2016-12-13T05:20:44.669Z,94.73
2016-12-13T05:21:12.825Z,95.02
2016-12-13T05:21:40.970Z,94.34
2016-12-13T05:22:09.128Z,94.34
2016-12-13T05:22:37.306Z,93.96
2016-12-13T05:23:05.468Z,94.06
2016-12-13T05:23:33.645Z,94.34
2016-12-13T05:24:01.835Z,93.96
2016-12-13T05:24:30.063Z,94.15
2016-12-13T05:24:58.254Z,95.21
2016-12-13T05:25:26.420Z,95.21
2016-12-13T05:25:54.653Z,94.82
2016-12-13T05:26:22.800Z,95.21
2016-12-13T05:26:50.965Z,95.02
2016-12-13T05:27:19.104Z,94.92
2016-12-13T05:27:47.356Z,95.59
2016-12-13T05:28:15.629Z,95.5
2016-12-13T05:28:43.882Z,95.5
2016-12-13T05:29:12.135Z,95.59
2016-12-13T05:29:40.312Z,95.11
2016-12-13T05:30:08.542Z,95.11
2016-12-13T05:30:36.694Z,95.02
2016-12-13T05:31:04.866Z,95.02
2016-12-13T05:31:32.995Z,94.44
2016-12-13T05:32:01.212Z,95.02
2016-12-13T05:32:29.492Z,95.11
2016-12-13T05:32:57.661Z,95.11
2016-12-13T05:33:25.839Z,94.54
2016-12-13T05:33:54.076Z,94.34
2016-12-13T05:34:22.204Z,94.54
2016-12-13T05:34:50.365Z,94.54
2016-12-13T05:35:18.560Z,94.82
2016-12-13T05:35:46.729Z,94.54
2016-12-13T05:36:15.011Z,94.44
2016-12-13T05:36:43.266Z,94.63
2016-12-13T05:37:11.448Z,95.21
2016-12-13T05:37:39.688Z,94.82
2016-12-13T05:38:07.824Z,94.54
2016-12-13T05:38:36.076Z,94.44
2016-12-13T05:39:04.283Z,94.24
2016-12-13T05:39:32.557Z,94.63
2016-12-13T05:40:00.702Z,94.63
2016-12-13T05:40:28.967Z,94.24
2016-12-13T05:40:57.120Z,94.34
2016-12-13T05:41:25.293Z,94.73
2016-12-13T05:41:53.434Z,94.44
2016-12-13T05:42:21.611Z,94.44
2016-12-13T05:42:49.766Z,94.15
2016-12-13T05:43:18.027Z,94.44
2016-12-13T05:43:46.208Z,94.44
2016-12-13T05:44:14.364Z,94.82
2016-12-13T05:44:42.552Z,95.02
2016-12-13T05:45:10.702Z,94.44
2016-12-13T05:45:38.868Z,94.24
2016-12-13T05:46:07.211Z,94.44
2016-12-13T05:46:35.442Z,94.63
2016-12-13T05:47:03.595Z,94.34
2016-12-13T05:47:31.838Z,93.66
2016-12-13T05:48:00.370Z,93.76
2016-12-13T05:48:28.523Z,94.34
2016-12-13T05:48:56.700Z,93.96
2016-12-13T05:49:24.856Z,94.63
2016-12-13T05:49:52.996Z,93.96
2016-12-13T05:50:21.172Z,94.54
2016-12-13T05:50:49.306Z,94.24
2016-12-13T05:51:17.627Z,94.54
2016-12-13T05:51:45.799Z,94.92
2016-12-13T05:52:14.092Z,94.34
2016-12-13T05:52:42.258Z,95.31
2016-12-13T05:53:10.510Z,95.21
2016-12-13T05:53:38.661Z,94.82
2016-12-13T05:54:06.911Z,95.11
2016-12-13T05:54:35.055Z,95.4
2016-12-13T05:55:03.195Z,95.21
2016-12-13T05:55:31.441Z,95.21
2016-12-13T05:55:59.623Z,95.02
2016-12-13T05:56:27.787Z,95.31
2016-12-13T05:56:55.942Z,95.21
2016-12-13T05:57:24.096Z,95.4
2016-12-13T05:57:52.249Z,95.69
2016-12-13T05:58:20.526Z,95.31
2016-12-13T05:58:48.823Z,95.5
2016-12-13T05:59:16.984Z,95.69
2016-12-13T05:59:45.260Z,95.98
2016-12-13T06:00:13.538Z,95.36